Terminal Aerodrome Forecast
Issued by NWS

Home | Current Version | Previous Version | Text Only | Print | Product List | Glossary Off
Versions: 1 2 3 4 5 6 7 8 9 10 11 12 13 14 15 16 17 18 19 20 21 22 23 24 25 26 27 28 29 30 31 32 33 34 35 36 37 38 39

000
FTUS43 KLOT 270100 AAA
TAFMDW
TAF AMD
KMDW 270154Z 2702/2724 04005KT 6SM -SHSN OVC025
     FM270500 34005KT P6SM OVC025
     FM270700 31008KT 6SM -SHSN BKN020 OVC040
     FM271500 30012G18KT P6SM SCT018 BKN030
     FM271900 30010KT P6SM SCT025=

USA.gov is the U.S. government's official web portal to all federal, state and local government web resources and services.